createdAt,value
2018-07-03T00:00:15.499Z,2.83
2018-07-03T00:02:44.268Z,1.20
2018-07-03T00:05:12.988Z,3.30
2018-07-03T00:07:41.752Z,3.07
2018-07-03T00:10:11.605Z,2.43
2018-07-03T00:12:40.291Z,2.70
2018-07-03T00:15:09.049Z,2.20
2018-07-03T00:17:38.463Z,1.50
2018-07-03T00:20:08.416Z,2.27
2018-07-03T00:22:37.144Z,3.63
2018-07-03T00:25:05.872Z,1.40
2018-07-03T00:27:34.721Z,1.77
2018-07-03T00:30:03.539Z,1.60
2018-07-03T00:32:32.265Z,1.97
2018-07-03T00:35:00.975Z,2.17
2018-07-03T00:37:29.794Z,2.90
2018-07-03T00:39:58.564Z,3.03
2018-07-03T00:42:27.320Z,1.50
2018-07-03T00:44:56.104Z,2.63
2018-07-03T00:47:24.828Z,2.20
2018-07-03T00:49:53.554Z,2.13
2018-07-03T00:52:22.262Z,3.03
2018-07-03T00:54:50.956Z,2.70
2018-07-03T00:57:19.744Z,2.17
2018-07-03T00:59:59.644Z,4.20
2018-07-03T01:02:28.406Z,2.40
2018-07-03T01:04:57.193Z,1.80
2018-07-03T01:07:25.911Z,1.53
2018-07-03T01:09:54.909Z,2.17
2018-07-03T01:12:23.596Z,3.03
2018-07-03T01:14:52.268Z,1.60
2018-07-03T01:17:21.001Z,3.43
2018-07-03T01:19:49.683Z,3.17
2018-07-03T01:22:18.441Z,3.67
2018-07-03T01:24:47.128Z,2.03
2018-07-03T01:27:15.848Z,2.90
2018-07-03T01:29:44.533Z,2.27
2018-07-03T01:32:13.491Z,2.10
2018-07-03T01:34:42.186Z,2.03
2018-07-03T01:37:11.089Z,1.80
2018-07-03T01:39:39.828Z,2.00
2018-07-03T01:42:08.589Z,2.87
2018-07-03T01:44:37.402Z,4.80
2018-07-03T01:47:06.175Z,4.37
2018-07-03T01:49:34.878Z,4.53
2018-07-03T01:52:03.599Z,4.67
2018-07-03T01:54:32.312Z,2.97
2018-07-03T01:57:01.045Z,2.20
2018-07-03T01:59:29.707Z,3.10
2018-07-03T02:01:58.572Z,4.13
2018-07-03T02:04:27.368Z,3.33
2018-07-03T02:06:56.109Z,4.93
2018-07-03T02:09:24.898Z,3.23
2018-07-03T02:11:53.900Z,2.23
2018-07-03T02:14:22.567Z,4.40
2018-07-03T02:16:51.319Z,4.17
2018-07-03T02:19:19.963Z,2.90
2018-07-03T02:21:48.668Z,2.37
2018-07-03T02:24:17.367Z,4.80
2018-07-03T02:26:46.546Z,3.40
2018-07-03T02:29:15.198Z,4.53
2018-07-03T02:31:43.865Z,3.43
2018-07-03T02:34:12.533Z,3.53
2018-07-03T02:36:41.295Z,3.67
2018-07-03T02:39:11.233Z,4.07
2018-07-03T02:41:40.388Z,3.80
2018-07-03T02:44:09.093Z,3.83
2018-07-03T02:46:37.853Z,3.07
2018-07-03T02:49:06.696Z,4.50
2018-07-03T02:51:35.377Z,4.40
2018-07-03T02:54:04.110Z,3.20
2018-07-03T02:56:32.884Z,5.00
2018-07-03T02:59:01.680Z,5.17
2018-07-03T03:01:30.492Z,5.03
2018-07-03T03:03:59.280Z,3.77
2018-07-03T03:06:28.118Z,4.63
2018-07-03T03:08:56.890Z,3.67
2018-07-03T03:11:25.619Z,4.70
2018-07-03T03:13:56.251Z,2.90
2018-07-03T03:16:25.029Z,3.83
2018-07-03T03:18:53.780Z,3.70
2018-07-03T03:21:22.564Z,3.17
2018-07-03T03:23:51.231Z,3.73
2018-07-03T03:26:19.955Z,4.63
2018-07-03T03:28:48.705Z,5.07
2018-07-03T03:31:17.415Z,5.07
2018-07-03T03:33:46.163Z,5.03
2018-07-03T03:36:14.912Z,5.20
2018-07-03T03:38:43.676Z,5.17
2018-07-03T03:41:12.358Z,4.00
2018-07-03T03:43:41.754Z,4.07
2018-07-03T03:46:10.504Z,6.23
2018-07-03T03:48:39.246Z,4.97
2018-07-03T03:51:07.980Z,5.60
2018-07-03T03:53:36.722Z,4.17
2018-07-03T03:56:05.498Z,5.40
2018-07-03T03:58:34.284Z,4.43
2018-07-03T04:01:02.983Z,4.83
2018-07-03T04:03:31.778Z,7.33
2018-07-03T04:06:00.581Z,6.67
2018-07-03T04:08:29.399Z,5.23
2018-07-03T04:10:58.181Z,6.20
2018-07-03T04:13:26.927Z,5.87
2018-07-03T04:15:55.670Z,8.13
2018-07-03T04:18:40.904Z,5.57
2018-07-03T04:21:09.610Z,6.20
2018-07-03T04:23:38.777Z,8.27
2018-07-03T04:26:07.638Z,6.20
2018-07-03T04:28:36.392Z,5.60
2018-07-03T04:31:05.110Z,5.63
2018-07-03T04:33:33.939Z,5.67
2018-07-03T04:36:02.694Z,5.30
2018-07-03T04:38:31.488Z,5.10
2018-07-03T04:41:00.237Z,5.17
2018-07-03T04:43:28.965Z,5.50
2018-07-03T04:45:57.726Z,6.47
2018-07-03T04:48:26.575Z,4.77
2018-07-03T04:50:55.255Z,7.73
2018-07-03T04:53:24.074Z,7.33
2018-07-03T04:55:52.833Z,6.33
2018-07-03T04:58:21.524Z,4.60
2018-07-03T05:00:50.221Z,7.43
2018-07-03T05:03:18.986Z,6.10
2018-07-03T05:05:47.738Z,5.60
2018-07-03T05:08:16.586Z,5.07
2018-07-03T05:10:45.412Z,7.60
2018-07-03T05:13:14.200Z,6.03
2018-07-03T05:15:43.011Z,6.63
2018-07-03T05:18:11.820Z,5.43
2018-07-03T05:20:40.588Z,5.27
2018-07-03T05:23:08.935Z,6.43
2018-07-03T05:25:37.692Z,7.80
2018-07-03T05:28:06.417Z,7.47
2018-07-03T05:30:35.165Z,5.70
2018-07-03T05:33:03.891Z,6.40
2018-07-03T05:35:32.574Z,6.07
2018-07-03T05:38:01.562Z,8.00
2018-07-03T05:40:30.438Z,6.27
2018-07-03T05:42:59.363Z,6.80
2018-07-03T05:45:28.197Z,8.70
2018-07-03T05:47:56.988Z,9.90
2018-07-03T05:50:26.502Z,6.97
2018-07-03T05:52:56.103Z,7.07
2018-07-03T05:55:24.958Z,6.20
2018-07-03T05:57:53.883Z,7.47
2018-07-03T06:00:22.730Z,7.63
2018-07-03T06:02:51.675Z,7.33
2018-07-03T06:05:20.647Z,5.90
2018-07-03T06:07:49.690Z,9.43
2018-07-03T06:10:18.617Z,8.13
2018-07-03T06:12:47.471Z,6.97
2018-07-03T06:15:15.926Z,9.00
2018-07-03T06:17:45.466Z,8.30
2018-07-03T06:20:14.410Z,7.10
2018-07-03T06:22:43.217Z,7.10
2018-07-03T06:25:12.176Z,7.70
2018-07-03T06:27:40.868Z,6.07
2018-07-03T06:30:11.774Z,6.40
2018-07-03T06:32:40.172Z,8.07
2018-07-03T06:35:09.020Z,6.80
2018-07-03T06:37:37.903Z,7.53
2018-07-03T06:40:06.749Z,6.47
2018-07-03T06:42:35.527Z,7.83
2018-07-03T06:45:05.831Z,6.43
2018-07-03T06:47:34.637Z,5.83
2018-07-03T06:50:03.501Z,5.80
2018-07-03T06:52:32.428Z,9.83
2018-07-03T06:55:01.225Z,5.67
2018-07-03T06:57:30.044Z,10.07
2018-07-03T06:59:58.831Z,8.97
2018-07-03T07:02:27.399Z,10.47
2018-07-03T07:04:56.347Z,10.10
2018-07-03T07:07:25.266Z,6.07
2018-07-03T07:09:54.225Z,6.60
2018-07-03T07:12:23.114Z,5.73
2018-07-03T07:14:52.149Z,5.70
2018-07-03T07:17:21.082Z,6.67
2018-07-03T07:19:49.722Z,5.73
2018-07-03T07:22:18.685Z,9.53
2018-07-03T07:24:47.575Z,6.80
2018-07-03T07:27:16.983Z,6.40
2018-07-03T07:29:46.059Z,6.83
2018-07-03T07:32:15.074Z,6.97
2018-07-03T07:34:44.059Z,5.93
2018-07-03T07:37:12.995Z,5.37
2018-07-03T07:39:41.817Z,7.20
2018-07-03T07:42:10.619Z,7.17
2018-07-03T07:44:39.484Z,7.80
2018-07-03T07:47:08.473Z,7.47
2018-07-03T07:49:37.367Z,8.67
2018-07-03T07:52:06.356Z,11.00
2018-07-03T07:54:36.064Z,7.47
2018-07-03T07:57:05.054Z,8.00
2018-07-03T07:59:34.148Z,6.97
2018-07-03T08:02:02.998Z,6.13
2018-07-03T08:04:31.867Z,6.57
2018-07-03T08:07:00.685Z,7.20
2018-07-03T08:09:29.505Z,7.03
2018-07-03T08:11:58.283Z,5.23
2018-07-03T08:14:27.059Z,5.83
2018-07-03T08:16:56.087Z,6.40
2018-07-03T08:19:24.506Z,5.43
2018-07-03T08:21:53.280Z,7.43
2018-07-03T08:24:21.981Z,8.83
2018-07-03T08:26:51.719Z,7.03
2018-07-03T08:29:20.541Z,5.87
2018-07-03T08:31:49.416Z,8.53
2018-07-03T08:34:18.926Z,7.63
2018-07-03T08:36:48.637Z,7.00
2018-07-03T08:39:17.325Z,6.17
2018-07-03T08:41:46.291Z,8.27
2018-07-03T08:44:14.924Z,9.43
2018-07-03T08:46:45.012Z,5.50
2018-07-03T08:49:13.707Z,8.67
2018-07-03T08:51:42.512Z,4.53
2018-07-03T08:54:11.178Z,7.10
2018-07-03T08:56:39.984Z,5.77
2018-07-03T08:59:09.260Z,7.00
2018-07-03T09:01:37.666Z,3.83
2018-07-03T09:04:06.442Z,6.60
2018-07-03T09:06:35.177Z,4.80
2018-07-03T09:09:06.463Z,6.70
2018-07-03T09:11:35.332Z,8.23
2018-07-03T09:14:04.387Z,5.13
2018-07-03T09:16:33.097Z,5.23
2018-07-03T09:19:01.824Z,5.23
2018-07-03T09:21:30.517Z,8.47
2018-07-03T09:23:59.354Z,3.87
2018-07-03T09:26:28.178Z,4.20
2018-07-03T09:28:56.935Z,4.93
2018-07-03T09:31:25.758Z,5.10
2018-07-03T09:33:54.525Z,4.63
2018-07-03T09:36:23.444Z,6.43
2018-07-03T09:38:52.176Z,5.80
2018-07-03T09:41:21.088Z,5.73
2018-07-03T09:43:49.843Z,3.70
2018-07-03T09:46:18.642Z,3.70
2018-07-03T09:48:47.450Z,3.23
2018-07-03T09:51:16.247Z,4.90
2018-07-03T09:53:44.976Z,4.93
2018-07-03T09:56:13.733Z,5.70
2018-07-03T09:58:42.072Z,4.57
2018-07-03T10:01:16.099Z,4.33
2018-07-03T10:03:44.847Z,5.80
2018-07-03T10:06:13.591Z,6.13
2018-07-03T10:08:42.394Z,7.20
2018-07-03T10:11:10.862Z,4.03
2018-07-03T10:13:39.586Z,3.37
2018-07-03T10:16:08.869Z,6.47
2018-07-03T10:18:37.652Z,5.70
2018-07-03T10:21:06.394Z,4.43
2018-07-03T10:23:35.240Z,4.03
2018-07-03T10:26:04.213Z,4.57
2018-07-03T10:28:33.065Z,4.83
2018-07-03T10:31:01.777Z,4.67
2018-07-03T10:33:30.517Z,4.87
2018-07-03T10:35:59.281Z,4.73
2018-07-03T10:38:28.246Z,6.10
2018-07-03T10:40:57.024Z,3.80
2018-07-03T10:43:25.768Z,2.47
2018-07-03T10:45:54.557Z,3.90
2018-07-03T10:48:23.347Z,3.83
2018-07-03T10:50:52.151Z,2.87
2018-07-03T10:53:20.838Z,1.83
2018-07-03T10:55:49.558Z,4.77
2018-07-03T10:58:18.371Z,2.90
2018-07-03T11:00:47.152Z,4.33
2018-07-03T11:03:15.890Z,5.50
2018-07-03T11:05:44.670Z,3.83
2018-07-03T11:08:13.396Z,4.90
2018-07-03T11:10:42.245Z,3.43
2018-07-03T11:13:10.925Z,3.20
2018-07-03T11:15:39.600Z,3.60
2018-07-03T11:18:08.505Z,3.07
2018-07-03T11:20:37.293Z,3.93
2018-07-03T11:23:06.028Z,5.17
2018-07-03T11:25:34.827Z,3.00
2018-07-03T11:28:03.602Z,3.80
2018-07-03T11:30:32.343Z,4.83
2018-07-03T11:33:01.138Z,3.10
2018-07-03T11:35:29.893Z,3.37
2018-07-03T11:37:58.736Z,3.90
2018-07-03T11:40:27.621Z,3.13
2018-07-03T11:42:56.438Z,4.20
2018-07-03T11:45:25.269Z,3.67
2018-07-03T11:47:53.960Z,2.33
2018-07-03T11:50:22.836Z,5.80
2018-07-03T11:52:51.710Z,3.60
2018-07-03T11:55:20.520Z,5.57
2018-07-03T11:57:49.288Z,2.20
2018-07-03T12:00:18.785Z,4.93
2018-07-03T12:02:48.202Z,4.57
2018-07-03T12:05:17.043Z,3.33
2018-07-03T12:07:45.951Z,4.40
2018-07-03T12:10:14.717Z,2.97
2018-07-03T12:12:44.452Z,2.20
2018-07-03T12:15:13.249Z,4.33
2018-07-03T12:17:42.073Z,3.43
2018-07-03T12:20:11.672Z,2.80
2018-07-03T12:22:40.490Z,4.87
2018-07-03T12:25:09.280Z,2.67
2018-07-03T12:27:38.114Z,3.90
2018-07-03T12:30:08.010Z,2.67
2018-07-03T12:32:36.804Z,2.73
2018-07-03T12:35:05.636Z,6.43
2018-07-03T12:37:34.364Z,3.23
2018-07-03T12:40:03.054Z,2.47
2018-07-03T12:42:31.915Z,2.97
2018-07-03T12:45:00.596Z,5.23
2018-07-03T12:47:29.771Z,4.23
2018-07-03T12:49:58.728Z,3.30
2018-07-03T12:52:27.616Z,3.20
2018-07-03T12:54:56.387Z,5.93
2018-07-03T12:57:25.180Z,4.67
2018-07-03T12:59:54.012Z,4.23
2018-07-03T13:02:22.879Z,5.20
2018-07-03T13:04:51.699Z,2.73
2018-07-03T13:07:20.865Z,8.10
2018-07-03T13:09:49.517Z,4.30
2018-07-03T13:12:18.297Z,5.10
2018-07-03T13:14:47.021Z,3.70
2018-07-03T13:17:15.745Z,3.27
2018-07-03T13:19:44.499Z,3.40
2018-07-03T13:22:13.210Z,3.23
2018-07-03T13:24:42.138Z,2.60
2018-07-03T13:27:10.954Z,5.80
2018-07-03T13:29:39.778Z,3.63
2018-07-03T13:32:08.554Z,2.73
2018-07-03T13:34:36.908Z,2.93
2018-07-03T13:37:05.649Z,3.57
2018-07-03T13:39:34.463Z,3.30
2018-07-03T13:42:03.281Z,3.97
2018-07-03T13:44:32.101Z,5.03
2018-07-03T13:47:00.791Z,3.10
2018-07-03T13:49:29.602Z,3.27
2018-07-03T13:51:58.311Z,2.07
2018-07-03T13:54:27.155Z,4.47
2018-07-03T13:56:55.871Z,5.33
2018-07-03T13:59:24.793Z,4.30
2018-07-03T14:01:53.423Z,2.33
2018-07-03T14:04:22.170Z,4.43
2018-07-03T14:06:51.042Z,4.30
2018-07-03T14:09:19.810Z,2.77
2018-07-03T14:11:48.504Z,4.57
2018-07-03T14:14:17.197Z,2.60
2018-07-03T14:16:46.031Z,4.53
2018-07-03T14:19:14.797Z,4.00
2018-07-03T14:21:43.566Z,2.83
2018-07-03T14:24:12.361Z,2.50
2018-07-03T14:26:41.231Z,2.77
2018-07-03T14:29:10.145Z,4.57
2018-07-03T14:31:38.869Z,9.77
2018-07-03T14:34:07.793Z,2.77
2018-07-03T14:36:36.545Z,4.47
2018-07-03T14:39:09.465Z,4.80
2018-07-03T14:41:38.208Z,6.93
2018-07-03T14:44:07.139Z,3.37
2018-07-03T14:46:36.036Z,5.77
2018-07-03T14:49:05.017Z,2.13
2018-07-03T14:51:33.828Z,5.17
2018-07-03T14:54:02.637Z,3.30
2018-07-03T14:56:32.138Z,2.53
2018-07-03T14:59:00.853Z,4.30
2018-07-03T15:01:29.612Z,4.53
2018-07-03T15:03:58.449Z,2.40
2018-07-03T15:06:27.395Z,3.10
2018-07-03T15:08:56.333Z,2.73
2018-07-03T15:11:25.161Z,4.27
2018-07-03T15:13:53.897Z,3.67
2018-07-03T15:16:22.804Z,5.70
2018-07-03T15:18:56.833Z,3.90
2018-07-03T15:21:25.680Z,3.13
2018-07-03T15:23:54.451Z,2.83
